createdAt,value
2018-06-17T00:00:50.252Z,41.55
2018-06-17T00:01:50.209Z,41.64
2018-06-17T00:02:50.168Z,41.55
2018-06-17T00:03:50.128Z,41.55
2018-06-17T00:04:50.083Z,41.45
2018-06-17T00:05:50.039Z,41.55
2018-06-17T00:06:49.997Z,41.55
2018-06-17T00:07:49.955Z,41.64
2018-06-17T00:08:49.913Z,41.64
2018-06-17T00:09:49.869Z,41.64
2018-06-17T00:10:49.827Z,41.64
2018-06-17T00:11:49.785Z,41.64
2018-06-17T00:12:49.743Z,41.64
2018-06-17T00:13:49.700Z,41.64
2018-06-17T00:14:49.657Z,41.64
2018-06-17T00:15:49.615Z,41.64
2018-06-17T00:16:49.572Z,41.64
2018-06-17T00:17:49.529Z,41.74
2018-06-17T00:18:49.490Z,41.74
2018-06-17T00:19:49.445Z,41.64
2018-06-17T00:20:49.403Z,41.64
2018-06-17T00:21:49.359Z,41.64
2018-06-17T00:22:49.319Z,41.64
2018-06-17T00:23:49.275Z,41.74
2018-06-17T00:24:49.233Z,41.64
2018-06-17T00:25:49.238Z,41.74
2018-06-17T00:26:49.154Z,41.64
2018-06-17T00:27:49.104Z,41.64
2018-06-17T00:28:49.062Z,41.55
2018-06-17T00:29:49.022Z,41.64
2018-06-17T00:30:48.977Z,41.55
2018-06-17T00:31:48.934Z,41.55
2018-06-17T00:32:48.892Z,41.64
2018-06-17T00:33:48.849Z,41.64
2018-06-17T00:34:48.807Z,41.64
2018-06-17T00:35:48.765Z,41.64
2018-06-17T00:36:48.722Z,41.64
2018-06-17T00:37:48.679Z,41.64
2018-06-17T00:38:48.637Z,41.64
2018-06-17T00:39:48.595Z,41.64
2018-06-17T00:40:48.553Z,41.64
2018-06-17T00:41:48.509Z,41.64
2018-06-17T00:42:48.467Z,41.64
2018-06-17T00:43:48.425Z,41.64
2018-06-17T00:44:48.382Z,41.64
2018-06-17T00:45:48.340Z,41.64
2018-06-17T00:46:48.297Z,41.64
2018-06-17T00:47:48.254Z,41.55
2018-06-17T00:48:48.262Z,41.45
2018-06-17T00:49:48.169Z,41.55
2018-06-17T00:50:48.126Z,41.45
2018-06-17T00:51:48.084Z,41.55
2018-06-17T00:52:48.042Z,41.45
2018-06-17T00:53:48.003Z,41.64
2018-06-17T00:54:47.959Z,41.64
2018-06-17T00:55:47.923Z,41.45
2018-06-17T00:56:47.872Z,41.45
2018-06-17T00:57:47.829Z,41.35
2018-06-17T00:58:47.786Z,41.35
2018-06-17T00:59:47.744Z,41.45
2018-06-17T01:00:47.703Z,41.55
2018-06-17T01:01:47.658Z,41.35
2018-06-17T01:02:47.616Z,41.55
2018-06-17T01:03:47.573Z,41.45
2018-06-17T01:04:47.531Z,41.35
2018-06-17T01:05:47.488Z,41.35
2018-06-17T01:06:47.446Z,41.35
2018-06-17T01:07:47.403Z,41.55
2018-06-17T01:08:47.360Z,41.45
2018-06-17T01:09:47.317Z,41.93
2018-06-17T01:10:47.276Z,41.45
2018-06-17T01:11:47.233Z,41.35
2018-06-17T01:12:47.192Z,41.35
2018-06-17T01:13:47.147Z,41.45
2018-06-17T01:14:47.105Z,41.55
2018-06-17T01:15:47.065Z,41.45
2018-06-17T01:16:47.021Z,41.93
2018-06-17T01:17:46.977Z,41.55
2018-06-17T01:18:46.935Z,41.74
2018-06-17T01:19:46.892Z,41.74
2018-06-17T01:20:46.850Z,41.74
2018-06-17T01:21:46.809Z,41.45
2018-06-17T01:22:46.765Z,41.45
2018-06-17T01:23:46.722Z,41.45
2018-06-17T01:24:46.680Z,41.45
2018-06-17T01:25:46.636Z,41.35
2018-06-17T01:26:46.594Z,41.45
2018-06-17T01:27:46.552Z,42.03
2018-06-17T01:28:46.510Z,41.45
2018-06-17T01:29:46.466Z,41.74
2018-06-17T01:30:46.424Z,41.93
2018-06-17T01:31:46.383Z,41.64
2018-06-17T01:32:46.338Z,41.93
2018-06-17T01:33:46.295Z,42.03
2018-06-17T01:34:46.253Z,41.83
2018-06-17T01:35:46.216Z,41.74
2018-06-17T01:36:46.169Z,41.83
2018-06-17T01:37:46.131Z,41.74
2018-06-17T01:38:46.082Z,41.83
2018-06-17T01:39:46.042Z,41.83
2018-06-17T01:40:46.001Z,41.55
2018-06-17T01:41:45.954Z,41.45
2018-06-17T01:42:45.912Z,41.83
2018-06-17T01:43:45.869Z,41.55
2018-06-17T01:44:45.827Z,41.55
2018-06-17T01:45:45.784Z,41.64
2018-06-17T01:46:45.741Z,41.74
2018-06-17T01:47:45.699Z,41.64
2018-06-17T01:48:45.657Z,41.74
2018-06-17T01:49:45.613Z,41.74
2018-06-17T01:50:45.668Z,41.35
2018-06-17T01:51:45.541Z,41.55
2018-06-17T01:52:45.487Z,41.74
2018-06-17T01:53:45.443Z,41.35
2018-06-17T01:54:45.405Z,41.74
2018-06-17T01:55:45.358Z,41.45
2018-06-17T01:56:45.316Z,41.45
2018-06-17T01:57:45.272Z,41.45
2018-06-17T01:58:45.230Z,41.45
2018-06-17T01:59:45.187Z,41.45
2018-06-17T02:00:45.145Z,41.55
2018-06-17T02:01:45.104Z,41.55
2018-06-17T02:02:45.059Z,41.45
2018-06-17T02:03:45.017Z,41.55
2018-06-17T02:04:44.974Z,42.13
2018-06-17T02:05:44.930Z,41.64
2018-06-17T02:06:44.888Z,41.55
2018-06-17T02:07:44.845Z,41.74
2018-06-17T02:08:44.804Z,42.03
2018-06-17T02:09:44.760Z,42.13
2018-06-17T02:10:44.717Z,42.13
2018-06-17T02:11:44.675Z,42.03
2018-06-17T02:12:44.632Z,42.03
2018-06-17T02:13:44.590Z,42.03
2018-06-17T02:14:44.546Z,42.03
2018-06-17T02:15:44.504Z,41.55
2018-06-17T02:16:44.463Z,41.93
2018-06-17T02:17:44.418Z,42.03
2018-06-17T02:18:44.375Z,42.03
2018-06-17T02:19:44.333Z,42.03
2018-06-17T02:20:44.291Z,42.03
2018-06-17T02:21:44.247Z,42.13
2018-06-17T02:22:44.204Z,42.03
2018-06-17T02:23:44.162Z,42.13
2018-06-17T02:24:44.119Z,42.03
2018-06-17T02:25:44.075Z,42.13
2018-06-17T02:26:44.033Z,41.83
2018-06-17T02:27:43.990Z,41.93
2018-06-17T02:28:43.948Z,42.03
2018-06-17T02:29:43.909Z,42.03
2018-06-17T02:30:43.862Z,42.13
2018-06-17T02:31:43.821Z,42.13
2018-06-17T02:32:43.777Z,42.00
2018-06-17T02:33:43.734Z,42.03
2018-06-17T02:34:43.691Z,42.13
2018-06-17T02:35:43.648Z,41.93
2018-06-17T02:36:43.607Z,41.93
2018-06-17T02:37:43.562Z,41.93
2018-06-17T02:38:43.522Z,42.03
2018-06-17T02:39:43.477Z,41.93
2018-06-17T02:40:43.434Z,42.03
2018-06-17T02:41:43.396Z,42.03
2018-06-17T02:42:43.349Z,42.03
2018-06-17T02:43:43.306Z,42.22
2018-06-17T02:44:43.264Z,42.22
2018-06-17T02:45:43.220Z,42.22
2018-06-17T02:46:43.177Z,42.20
2018-06-17T02:47:43.134Z,42.20
2018-06-17T02:48:43.092Z,42.00
2018-06-17T02:49:43.099Z,42.22
2018-06-17T02:50:43.006Z,41.93
2018-06-17T02:51:42.964Z,42.22
2018-06-17T02:52:42.922Z,42.32
2018-06-17T02:53:42.878Z,42.13
2018-06-17T02:54:42.836Z,42.22
2018-06-17T02:55:42.792Z,42.22
2018-06-17T02:56:42.750Z,42.22
2018-06-17T02:57:42.707Z,42.22
2018-06-17T02:58:42.663Z,42.22
2018-06-17T02:59:42.621Z,42.13
2018-06-17T03:00:42.580Z,42.13
2018-06-17T03:01:42.538Z,42.13
2018-06-17T03:02:42.495Z,42.22
2018-06-17T03:03:42.452Z,42.13
2018-06-17T03:04:42.407Z,42.22
2018-06-17T03:05:42.367Z,42.20
2018-06-17T03:06:42.320Z,42.13
2018-06-17T03:07:42.281Z,42.10
2018-06-17T03:08:42.238Z,42.22
2018-06-17T03:09:42.196Z,42.22
2018-06-17T03:10:42.199Z,42.10
2018-06-17T03:11:42.106Z,42.10
2018-06-17T03:12:42.064Z,42.13
2018-06-17T03:13:42.030Z,42.13
2018-06-17T03:14:41.979Z,42.32
2018-06-17T03:15:41.943Z,42.03
2018-06-17T03:16:41.892Z,42.32
2018-06-17T03:17:41.849Z,42.40
2018-06-17T03:18:41.806Z,42.22
2018-06-17T03:19:41.762Z,42.13
2018-06-17T03:20:41.720Z,42.22
2018-06-17T03:21:41.676Z,42.13
2018-06-17T03:22:41.634Z,42.13
2018-06-17T03:23:41.591Z,42.40
2018-06-17T03:24:41.555Z,42.32
2018-06-17T03:25:41.508Z,42.41
2018-06-17T03:26:41.463Z,42.22
2018-06-17T03:27:41.421Z,42.22
2018-06-17T03:28:41.377Z,42.41
2018-06-17T03:29:41.333Z,42.32
2018-06-17T03:30:41.301Z,42.03
2018-06-17T03:31:41.261Z,42.13
2018-06-17T03:32:41.206Z,42.30
2018-06-17T03:33:41.161Z,42.22
2018-06-17T03:34:41.119Z,42.41
2018-06-17T03:35:41.076Z,42.41
2018-06-17T03:36:41.034Z,42.40
2018-06-17T03:37:40.990Z,42.32
2018-06-17T03:38:40.947Z,42.20
2018-06-17T03:39:40.905Z,42.22
2018-06-17T03:40:40.862Z,42.32
2018-06-17T03:41:40.819Z,42.22
2018-06-17T03:42:40.776Z,42.32
2018-06-17T03:43:40.733Z,42.40
2018-06-17T03:44:40.696Z,42.41
2018-06-17T03:45:40.647Z,42.30
2018-06-17T03:46:40.604Z,42.41
2018-06-17T03:47:40.561Z,42.32
2018-06-17T03:48:40.519Z,42.41
2018-06-17T03:49:40.475Z,42.32
2018-06-17T03:50:40.435Z,42.32
2018-06-17T03:51:40.389Z,42.32
2018-06-17T03:52:40.347Z,42.32
2018-06-17T03:53:40.309Z,42.41
2018-06-17T03:54:40.260Z,42.32
2018-06-17T03:55:40.218Z,42.32
2018-06-17T03:56:40.175Z,42.41
2018-06-17T03:57:40.132Z,42.41
2018-06-17T03:58:40.090Z,42.40
2018-06-17T03:59:40.046Z,42.30
2018-06-17T04:00:40.005Z,42.30
2018-06-17T04:01:39.962Z,42.41
2018-06-17T04:02:39.917Z,42.40
2018-06-17T04:03:39.875Z,42.41
2018-06-17T04:04:39.833Z,42.22
2018-06-17T04:05:39.788Z,42.41
2018-06-17T04:06:39.749Z,42.41
2018-06-17T04:07:39.703Z,42.41
2018-06-17T04:08:39.660Z,42.41
2018-06-17T04:09:39.616Z,42.41
2018-06-17T04:10:39.574Z,42.41
2018-06-17T04:11:39.531Z,42.22
2018-06-17T04:12:39.488Z,42.32
2018-06-17T04:13:39.445Z,42.32
2018-06-17T04:14:39.402Z,42.40
2018-06-17T04:15:39.359Z,42.32
2018-06-17T04:16:39.318Z,42.32
2018-06-17T04:17:39.272Z,42.32
2018-06-17T04:18:39.231Z,42.32
2018-06-17T04:19:39.188Z,42.22
2018-06-17T04:20:39.145Z,42.22
2018-06-17T04:21:39.101Z,42.41
2018-06-17T04:22:39.058Z,42.22
2018-06-17T04:23:39.016Z,42.32
2018-06-17T04:24:38.973Z,42.51
2018-06-17T04:25:38.942Z,42.22
2018-06-17T04:26:38.887Z,42.22
2018-06-17T04:27:38.844Z,42.13
2018-06-17T04:28:38.802Z,42.41
2018-06-17T04:29:38.761Z,42.13
2018-06-17T04:30:38.716Z,42.13
2018-06-17T04:31:38.675Z,42.03
2018-06-17T04:32:38.630Z,42.03
2018-06-17T04:33:38.586Z,42.22
2018-06-17T04:34:38.544Z,42.41
2018-06-17T04:35:38.504Z,42.13
2018-06-17T04:36:38.458Z,42.32
2018-06-17T04:37:38.418Z,42.41
2018-06-17T04:38:38.373Z,42.22
2018-06-17T04:39:38.330Z,42.22
2018-06-17T04:40:38.287Z,42.22
2018-06-17T04:41:38.244Z,42.22
2018-06-17T04:42:38.201Z,42.22
2018-06-17T04:43:38.157Z,42.22
2018-06-17T04:44:38.115Z,41.83
2018-06-17T04:45:38.072Z,42.13
2018-06-17T04:46:38.031Z,41.64
2018-06-17T04:47:37.987Z,41.55
2018-06-17T04:48:37.944Z,41.64
2018-06-17T04:49:37.901Z,41.55
2018-06-17T04:50:37.858Z,41.55
2018-06-17T04:51:37.815Z,41.74
2018-06-17T04:52:37.773Z,41.93
2018-06-17T04:53:37.730Z,41.45
2018-06-17T04:54:37.687Z,41.35
2018-06-17T04:55:37.645Z,41.66
2018-06-17T04:56:37.603Z,41.66
2018-06-17T04:57:37.559Z,41.66
2018-06-17T04:58:37.517Z,41.47
2018-06-17T04:59:37.476Z,41.27
2018-06-17T05:00:37.432Z,41.27
2018-06-17T05:01:37.388Z,41.08
2018-06-17T05:02:37.345Z,41.17
2018-06-17T05:03:37.303Z,41.17
2018-06-17T05:04:37.260Z,41.37
2018-06-17T05:05:37.217Z,41.56
2018-06-17T05:06:37.174Z,41.47
2018-06-17T05:07:37.134Z,41.27
2018-06-17T05:08:37.094Z,41.49
2018-06-17T05:09:37.047Z,41.39
2018-06-17T05:10:37.004Z,41.39
2018-06-17T05:11:36.963Z,41.37
2018-06-17T05:12:36.919Z,41.30
2018-06-17T05:13:36.876Z,41.20
2018-06-17T05:14:36.834Z,41.10
2018-06-17T05:15:36.799Z,41.10
2018-06-17T05:16:36.749Z,41.30
2018-06-17T05:17:36.705Z,41.20
2018-06-17T05:18:36.663Z,41.10
2018-06-17T05:19:36.621Z,41.30
2018-06-17T05:20:36.579Z,41.20
2018-06-17T05:21:36.535Z,41.30
2018-06-17T05:22:36.493Z,41.49
2018-06-17T05:23:36.450Z,41.39
2018-06-17T05:24:36.410Z,41.49
2018-06-17T05:25:36.365Z,41.49
2018-06-17T05:26:36.323Z,41.49
2018-06-17T05:27:36.280Z,41.49
2018-06-17T05:28:36.244Z,41.49
2018-06-17T05:29:36.199Z,41.68
2018-06-17T05:30:36.152Z,41.37
2018-06-17T05:31:36.110Z,41.39
2018-06-17T05:32:36.068Z,41.20
2018-06-17T05:33:36.025Z,41.00
2018-06-17T05:34:35.982Z,41.00
2018-06-17T05:35:35.944Z,41.20
2018-06-17T05:36:35.899Z,41.10
2018-06-17T05:37:35.855Z,41.10
2018-06-17T05:38:35.812Z,41.20
2018-06-17T05:39:35.771Z,41.20
2018-06-17T05:40:35.730Z,41.10
2018-06-17T05:41:35.690Z,41.10
2018-06-17T05:42:35.642Z,40.92
2018-06-17T05:43:35.601Z,40.54
2018-06-17T05:44:35.558Z,40.73
2018-06-17T05:45:35.515Z,40.73
2018-06-17T05:46:35.473Z,40.73
2018-06-17T05:47:35.488Z,40.83
2018-06-17T05:48:35.389Z,40.73
2018-06-17T05:49:35.346Z,40.83
2018-06-17T05:50:35.308Z,40.64
2018-06-17T05:51:35.262Z,40.64
2018-06-17T05:52:35.220Z,40.54
2018-06-17T05:53:35.176Z,40.54
2018-06-17T05:54:35.138Z,40.44
2018-06-17T05:55:35.099Z,40.44
2018-06-17T05:56:35.050Z,40.44
2018-06-17T05:57:35.007Z,40.46
2018-06-17T05:58:35.007Z,40.46
2018-06-17T05:59:34.923Z,40.46
2018-06-17T06:00:34.882Z,40.36
2018-06-17T06:01:34.843Z,40.36
2018-06-17T06:02:34.798Z,40.36
2018-06-17T06:03:34.754Z,40.05
2018-06-17T06:04:34.712Z,40.25
2018-06-17T06:05:34.719Z,40.26
2018-06-17T06:06:34.627Z,40.17
2018-06-17T06:07:34.585Z,40.08
2018-06-17T06:08:34.543Z,40.17
2018-06-17T06:09:34.500Z,40.17
2018-06-17T06:10:34.461Z,39.88
2018-06-17T06:11:34.416Z,40.08
2018-06-17T06:12:34.375Z,40.17
2018-06-17T06:13:34.331Z,40.08
2018-06-17T06:14:34.289Z,40.26
2018-06-17T06:15:34.247Z,40.08
2018-06-17T06:16:34.206Z,40.08
2018-06-17T06:17:34.163Z,39.88
2018-06-17T06:18:34.127Z,39.98
2018-06-17T06:19:34.079Z,40.08
2018-06-17T06:20:34.038Z,39.98
2018-06-17T06:21:33.994Z,40.09
2018-06-17T06:22:34.003Z,39.88
2018-06-17T06:23:33.910Z,39.98
2018-06-17T06:24:33.874Z,39.90
2018-06-17T06:25:33.826Z,40.00
2018-06-17T06:26:33.785Z,39.78
2018-06-17T06:27:33.743Z,39.80
2018-06-17T06:28:33.700Z,39.90
2018-06-17T06:29:33.659Z,39.90
2018-06-17T06:30:33.616Z,39.80
2018-06-17T06:31:33.574Z,39.61
2018-06-17T06:32:33.533Z,39.61
2018-06-17T06:33:33.490Z,39.51
2018-06-17T06:34:33.451Z,39.51
2018-06-17T06:35:33.413Z,39.41
2018-06-17T06:36:33.365Z,39.34
2018-06-17T06:37:33.324Z,39.22
2018-06-17T06:38:33.281Z,39.24
2018-06-17T06:39:33.239Z,39.34
2018-06-17T06:40:33.200Z,39.14
2018-06-17T06:41:33.155Z,39.24
2018-06-17T06:42:33.114Z,38.95
2018-06-17T06:43:33.071Z,39.04
2018-06-17T06:44:33.030Z,38.95
2018-06-17T06:45:33.013Z,38.95
2018-06-17T06:46:32.946Z,38.85
2018-06-17T06:47:32.905Z,38.75
2018-06-17T06:48:32.863Z,38.77
2018-06-17T06:49:32.820Z,38.57
2018-06-17T06:50:32.779Z,38.67
2018-06-17T06:51:32.738Z,38.57
2018-06-17T06:52:32.696Z,38.48
2018-06-17T06:53:32.654Z,38.19
2018-06-17T06:54:32.612Z,38.39
2018-06-17T06:55:32.571Z,38.48
2018-06-17T06:56:32.530Z,38.29
2018-06-17T06:57:32.500Z,38.39
2018-06-17T06:58:32.446Z,38.19
2018-06-17T06:59:32.405Z,37.92
2018-06-17T07:00:32.364Z,38.11
2018-06-17T07:01:32.322Z,37.82
2018-06-17T07:02:32.281Z,37.62
2018-06-17T07:03:32.239Z,37.72
2018-06-17T07:04:32.197Z,37.92
2018-06-17T07:05:32.154Z,38.01
2018-06-17T07:06:32.113Z,37.52
2018-06-17T07:07:32.072Z,37.52
2018-06-17T07:08:32.031Z,37.34
2018-06-17T07:09:31.988Z,37.64
2018-06-17T07:10:31.948Z,37.64
2018-06-17T07:11:31.906Z,37.16
2018-06-17T07:12:31.865Z,37.06
2018-06-17T07:13:31.822Z,36.96
2018-06-17T07:14:31.781Z,36.96
2018-06-17T07:15:31.740Z,36.96
2018-06-17T07:16:31.698Z,36.57
2018-06-17T07:17:31.659Z,36.67
2018-06-17T07:18:31.616Z,36.79
2018-06-17T07:19:31.574Z,36.98
2018-06-17T07:20:31.533Z,36.88
2018-06-17T07:21:31.491Z,36.79
2018-06-17T07:22:31.450Z,36.79
2018-06-17T07:23:31.408Z,36.49
2018-06-17T07:24:31.367Z,36.40
2018-06-17T07:25:31.325Z,36.20
2018-06-17T07:26:31.285Z,36.20
2018-06-17T07:27:31.243Z,36.10
2018-06-17T07:28:31.202Z,36.10
2018-06-17T07:29:31.164Z,36.02
2018-06-17T07:30:31.269Z,35.83
2018-06-17T07:31:31.078Z,35.73
2018-06-17T07:32:31.037Z,35.34
2018-06-17T07:33:30.998Z,35.34
2018-06-17T07:34:30.957Z,35.34
2018-06-17T07:35:30.913Z,35.44
2018-06-17T07:36:30.879Z,35.34
2018-06-17T07:37:30.830Z,35.46
2018-06-17T07:38:30.789Z,35.16
2018-06-17T07:39:30.749Z,35.16
2018-06-17T07:40:30.708Z,34.97
2018-06-17T07:41:30.665Z,35.16
2018-06-17T07:42:30.624Z,35.16
2018-06-17T07:43:30.583Z,34.88
2018-06-17T07:44:30.542Z,35.08
2018-06-17T07:45:30.500Z,34.89
2018-06-17T07:46:30.461Z,34.78
2018-06-17T07:47:30.419Z,34.69
2018-06-17T07:48:30.380Z,34.79
2018-06-17T07:49:30.336Z,34.50
2018-06-17T07:50:30.295Z,34.40
2018-06-17T07:51:30.255Z,34.01
2018-06-17T07:52:30.213Z,34.40
2018-06-17T07:53:30.171Z,34.50
2018-06-17T07:54:30.131Z,33.83
2018-06-17T07:55:30.090Z,33.83
2018-06-17T07:56:30.049Z,33.73
2018-06-17T07:57:30.008Z,33.93
2018-06-17T07:58:29.966Z,33.73
2018-06-17T07:59:29.925Z,33.46
2018-06-17T08:00:29.884Z,33.44
2018-06-17T08:01:29.842Z,33.64
2018-06-17T08:02:29.801Z,33.07
2018-06-17T08:03:29.761Z,33.26
2018-06-17T08:04:29.720Z,33.07
2018-06-17T08:05:29.678Z,33.07
2018-06-17T08:06:29.637Z,33.07
2018-06-17T08:07:29.596Z,32.68
2018-06-17T08:08:29.556Z,32.79
2018-06-17T08:09:29.516Z,32.70
2018-06-17T08:10:29.473Z,32.40
2018-06-17T08:11:29.434Z,32.60
2018-06-17T08:12:29.391Z,32.40
2018-06-17T08:13:29.351Z,32.31
2018-06-17T08:14:29.311Z,32.31
2018-06-17T08:15:29.274Z,32.40
2018-06-17T08:16:29.235Z,32.11
2018-06-17T08:17:29.187Z,32.11
2018-06-17T08:18:29.146Z,32.11
2018-06-17T08:19:29.106Z,32.11
2018-06-17T08:20:29.066Z,32.21
2018-06-17T08:21:29.024Z,32.21
2018-06-17T08:22:28.983Z,32.01
2018-06-17T08:23:28.943Z,31.82
2018-06-17T08:24:28.902Z,31.92
2018-06-17T08:25:28.860Z,31.84
2018-06-17T08:26:28.822Z,31.82
2018-06-17T08:27:28.779Z,32.31
2018-06-17T08:28:28.739Z,32.40
2018-06-17T08:29:28.697Z,32.09
2018-06-17T08:30:28.659Z,32.48
2018-06-17T08:31:28.617Z,32.60
2018-06-17T08:32:28.577Z,32.31
2018-06-17T08:33:28.535Z,32.40
2018-06-17T08:34:28.495Z,32.11
2018-06-17T08:35:28.455Z,32.01
2018-06-17T08:36:28.417Z,31.72
2018-06-17T08:37:28.373Z,31.25
2018-06-17T08:38:28.333Z,31.35
2018-06-17T08:39:28.292Z,31.82
2018-06-17T08:40:28.252Z,32.21
2018-06-17T08:41:28.211Z,32.29
2018-06-17T08:42:28.171Z,32.48
2018-06-17T08:43:28.132Z,32.48
2018-06-17T08:44:28.100Z,32.29
2018-06-17T08:45:28.050Z,32.29
2018-06-17T08:46:28.011Z,32.39
2018-06-17T08:47:27.970Z,32.58
2018-06-17T08:48:27.931Z,32.68
2018-06-17T08:49:27.902Z,32.68
2018-06-17T08:50:27.849Z,32.87
2018-06-17T08:51:27.809Z,32.87
2018-06-17T08:52:27.769Z,32.68
2018-06-17T08:53:27.729Z,32.48
2018-06-17T08:54:27.689Z,32.48
2018-06-17T08:55:27.649Z,32.48
2018-06-17T08:56:27.610Z,32.48
2018-06-17T08:57:27.570Z,32.68
2018-06-17T08:58:27.528Z,33.25
2018-06-17T08:59:27.489Z,32.96
2018-06-17T09:00:27.449Z,33.53
2018-06-17T09:01:27.409Z,33.92
2018-06-17T09:02:27.369Z,34.21
2018-06-17T09:03:27.330Z,34.19
2018-06-17T09:04:27.289Z,34.19
2018-06-17T09:05:27.254Z,34.21
2018-06-17T09:06:27.210Z,34.19
2018-06-17T09:07:27.170Z,34.09
2018-06-17T09:08:27.130Z,34.39
2018-06-17T09:09:27.093Z,34.48
2018-06-17T09:10:27.050Z,34.29
2018-06-17T09:11:27.009Z,34.39
2018-06-17T09:12:27.007Z,34.29
2018-06-17T09:13:26.929Z,34.31
2018-06-17T09:14:26.889Z,34.21
2018-06-17T09:15:26.850Z,34.21
2018-06-17T09:16:26.812Z,33.92
2018-06-17T09:17:26.770Z,33.72
2018-06-17T09:18:26.731Z,33.92
2018-06-17T09:19:26.691Z,33.44
2018-06-17T09:20:26.651Z,33.54
2018-06-17T09:21:26.610Z,33.25
2018-06-17T09:22:26.571Z,33.06
2018-06-17T09:23:26.532Z,33.06
2018-06-17T09:24:26.492Z,33.15
2018-06-17T09:25:26.452Z,33.25
2018-06-17T09:26:26.413Z,33.54
2018-06-17T09:27:26.374Z,33.62
2018-06-17T09:28:26.334Z,33.72
2018-06-17T09:29:26.294Z,33.92
2018-06-17T09:30:26.255Z,34.68
2018-06-17T09:31:26.215Z,34.19
2018-06-17T09:32:26.176Z,34.68
2018-06-17T09:33:26.136Z,34.86
2018-06-17T09:34:26.097Z,35.15
2018-06-17T09:35:26.059Z,35.15
2018-06-17T09:36:26.024Z,35.42
2018-06-17T09:37:25.981Z,35.61
2018-06-17T09:38:25.939Z,36.00
2018-06-17T09:39:25.900Z,36.18
2018-06-17T09:40:25.861Z,36.57
2018-06-17T09:41:25.820Z,36.87
2018-06-17T09:42:25.782Z,36.55
2018-06-17T09:43:25.743Z,36.65
2018-06-17T09:44:25.716Z,37.14
2018-06-17T09:45:25.665Z,37.04
2018-06-17T09:46:25.629Z,37.24
2018-06-17T09:47:25.586Z,37.34
2018-06-17T09:48:25.547Z,37.51
2018-06-17T09:49:25.507Z,37.41
2018-06-17T09:50:25.470Z,37.70
2018-06-17T09:51:25.429Z,37.60
2018-06-17T09:52:25.390Z,37.51
2018-06-17T09:53:25.350Z,37.80
2018-06-17T09:54:25.311Z,37.99
2018-06-17T09:55:25.272Z,37.90
2018-06-17T09:56:25.234Z,37.90
2018-06-17T09:57:25.192Z,37.99
2018-06-17T09:58:25.182Z,38.19
2018-06-17T09:59:25.114Z,38.19
2018-06-17T10:00:25.075Z,37.99
2018-06-17T10:01:25.079Z,38.27
2018-06-17T10:02:24.996Z,38.19
2018-06-17T10:03:24.956Z,38.27
2018-06-17T10:04:24.916Z,38.39
2018-06-17T10:05:24.875Z,38.48
2018-06-17T10:06:24.837Z,38.39
2018-06-17T10:07:24.796Z,38.37
2018-06-17T10:08:24.756Z,38.65
2018-06-17T10:09:24.716Z,38.75
2018-06-17T10:10:24.677Z,38.56
2018-06-17T10:11:24.636Z,38.65
2018-06-17T10:12:24.597Z,38.85
2018-06-17T10:13:24.557Z,38.65
2018-06-17T10:14:24.516Z,38.65
2018-06-17T10:15:24.477Z,38.85
2018-06-17T10:16:24.436Z,38.75
2018-06-17T10:17:24.396Z,38.75
2018-06-17T10:18:24.356Z,38.75
2018-06-17T10:19:24.316Z,38.75
2018-06-17T10:20:24.278Z,38.56
2018-06-17T10:21:24.236Z,38.85
2018-06-17T10:22:24.196Z,38.75
2018-06-17T10:23:24.156Z,38.85
2018-06-17T10:24:24.116Z,38.75
2018-06-17T10:25:24.125Z,38.85
2018-06-17T10:26:24.036Z,38.65
2018-06-17T10:27:23.995Z,38.85
2018-06-17T10:28:23.954Z,38.95
2018-06-17T10:29:23.971Z,38.95
2018-06-17T10:30:23.873Z,38.95
2018-06-17T10:31:23.837Z,39.04
2018-06-17T10:32:23.794Z,38.85
2018-06-17T10:33:23.756Z,38.95
2018-06-17T10:34:23.713Z,39.04
2018-06-17T10:35:23.673Z,38.95
2018-06-17T10:36:23.633Z,38.95
2018-06-17T10:37:23.592Z,38.95
2018-06-17T10:38:23.551Z,38.95
2018-06-17T10:39:23.512Z,38.95
2018-06-17T10:40:23.471Z,38.95
2018-06-17T10:41:23.430Z,38.95
2018-06-17T10:42:23.392Z,38.95
2018-06-17T10:43:23.389Z,38.95
2018-06-17T10:44:23.320Z,38.85
2018-06-17T10:45:23.271Z,38.95
2018-06-17T10:46:23.229Z,39.14
2018-06-17T10:47:23.191Z,38.95
2018-06-17T10:48:23.149Z,39.14
2018-06-17T10:49:23.112Z,39.14
2018-06-17T10:50:23.126Z,39.04
2018-06-17T10:51:23.027Z,39.04
2018-06-17T10:52:22.987Z,39.04
2018-06-17T10:53:22.951Z,39.04
2018-06-17T10:54:22.908Z,39.14
2018-06-17T10:55:22.870Z,38.95
2018-06-17T10:56:22.826Z,39.14
2018-06-17T10:57:22.785Z,38.95
2018-06-17T10:58:22.746Z,39.34
2018-06-17T10:59:22.704Z,39.34
2018-06-17T11:00:22.666Z,39.04
2018-06-17T11:01:22.624Z,39.34
2018-06-17T11:02:22.583Z,39.24
2018-06-17T11:03:22.544Z,39.24
2018-06-17T11:04:22.503Z,39.34
2018-06-17T11:05:22.466Z,39.24
2018-06-17T11:06:22.425Z,39.34
2018-06-17T11:07:22.388Z,39.34
2018-06-17T11:08:22.341Z,39.34
2018-06-17T11:09:22.300Z,39.34
2018-06-17T11:10:22.264Z,39.34
2018-06-17T11:11:22.220Z,39.43
2018-06-17T11:12:22.180Z,39.34
2018-06-17T11:13:22.300Z,39.43
2018-06-17T11:14:22.098Z,39.34
2018-06-17T11:15:22.059Z,39.53
2018-06-17T11:16:22.018Z,39.34
2018-06-17T11:17:21.977Z,39.51
2018-06-17T11:18:21.936Z,39.51
2018-06-17T11:19:21.897Z,39.61
2018-06-17T11:20:21.863Z,39.51
2018-06-17T11:21:21.815Z,39.61
2018-06-17T11:22:21.775Z,39.70
2018-06-17T11:23:21.736Z,39.51
2018-06-17T11:24:21.694Z,39.70
2018-06-17T11:25:21.654Z,39.80
2018-06-17T11:26:21.613Z,39.70
2018-06-17T11:27:21.576Z,39.80
2018-06-17T11:28:21.533Z,39.72
2018-06-17T11:29:21.492Z,39.70
2018-06-17T11:30:21.451Z,39.62
2018-06-17T11:31:21.411Z,39.61
2018-06-17T11:32:21.371Z,39.61
2018-06-17T11:33:21.330Z,39.70
2018-06-17T11:34:21.290Z,39.61
2018-06-17T11:35:21.249Z,39.82
2018-06-17T11:36:21.209Z,39.80
2018-06-17T11:37:21.168Z,39.70
2018-06-17T11:38:21.128Z,39.80
2018-06-17T11:39:21.088Z,39.80
2018-06-17T11:40:21.052Z,39.62
2018-06-17T11:41:21.007Z,39.70
2018-06-17T11:42:20.966Z,39.70
2018-06-17T11:43:20.925Z,39.62
2018-06-17T11:44:20.886Z,39.70
2018-06-17T11:45:20.844Z,39.61
2018-06-17T11:46:20.835Z,39.61
2018-06-17T11:47:20.764Z,39.70
2018-06-17T11:48:20.723Z,39.80
2018-06-17T11:49:20.682Z,39.80
2018-06-17T11:50:20.642Z,39.80
2018-06-17T11:51:20.651Z,39.80
2018-06-17T11:52:20.561Z,39.90
2018-06-17T11:53:20.526Z,39.90
2018-06-17T11:54:20.480Z,39.80
2018-06-17T11:55:20.440Z,39.90
2018-06-17T11:56:20.410Z,40.00
2018-06-17T11:57:20.357Z,40.00
2018-06-17T11:58:20.317Z,39.90
2018-06-17T11:59:20.277Z,39.80
2018-06-17T12:00:20.237Z,39.80
2018-06-17T12:01:20.200Z,39.80
2018-06-17T12:02:20.156Z,39.90
2018-06-17T12:03:20.115Z,39.90
2018-06-17T12:04:20.075Z,39.90
2018-06-17T12:05:20.034Z,40.00
2018-06-17T12:06:19.994Z,39.90
2018-06-17T12:07:19.953Z,40.00
2018-06-17T12:08:19.913Z,40.09
2018-06-17T12:09:19.871Z,40.09
2018-06-17T12:10:19.831Z,40.19
2018-06-17T12:11:19.791Z,40.00
2018-06-17T12:12:19.750Z,40.09
2018-06-17T12:13:19.709Z,40.00
2018-06-17T12:14:19.668Z,40.00
2018-06-17T12:15:19.629Z,40.00
2018-06-17T12:16:19.592Z,40.00
2018-06-17T12:17:19.597Z,39.90
2018-06-17T12:18:19.506Z,40.09
2018-06-17T12:19:19.466Z,40.00
2018-06-17T12:20:19.426Z,40.00
2018-06-17T12:21:19.385Z,40.19
2018-06-17T12:22:19.344Z,39.90
2018-06-17T12:23:19.305Z,40.19
2018-06-17T12:24:19.263Z,40.00
2018-06-17T12:25:19.273Z,40.00
2018-06-17T12:26:19.182Z,40.09
2018-06-17T12:27:19.141Z,40.00
2018-06-17T12:28:19.101Z,39.90
2018-06-17T12:29:19.061Z,40.09
2018-06-17T12:30:19.019Z,40.09
2018-06-17T12:31:18.979Z,39.80
2018-06-17T12:32:18.938Z,40.09
2018-06-17T12:33:18.897Z,40.00
2018-06-17T12:34:18.857Z,39.90
2018-06-17T12:35:18.817Z,40.09
2018-06-17T12:36:18.777Z,40.00
2018-06-17T12:37:18.734Z,39.90
2018-06-17T12:38:18.695Z,40.00
2018-06-17T12:39:18.654Z,40.00
2018-06-17T12:40:18.613Z,39.90
2018-06-17T12:41:18.572Z,39.80
2018-06-17T12:42:18.531Z,40.00
2018-06-17T12:43:18.541Z,40.00
2018-06-17T12:44:18.451Z,39.90
2018-06-17T12:45:18.459Z,40.00
2018-06-17T12:46:18.369Z,40.00
2018-06-17T12:47:18.329Z,40.09
2018-06-17T12:48:18.289Z,40.09
2018-06-17T12:49:18.250Z,40.00
2018-06-17T12:50:18.207Z,40.00
2018-06-17T12:51:18.166Z,40.09
2018-06-17T12:52:18.126Z,40.19